Pernille — 5BNZ2 — position and weather

sailwx.info

Track history (hours):
 
Tides and Currents Weather Stations Pressure Air Temp Water Temp Dewpoint Dewpoint Depression Visibility Wind Speed Wind Dir Waves Ship Positions

Pernille

Last reported at 2015-Sep-02 18:31 UTC. Time now 2015-Sep-02 19:05 UTC.
Position N 54°09' E 012°07'.

Length 82 m; draft 5.3 m.

Type: Cargo ship. MMSI: 212662000.

Date/timePositionNaut miles runAvg speedWind from/ knotsBaromVisibWave heightAir tempDewpointWater temp
2015-Sep-02 18:31N 54°09' E 012°07'0 0.0
2015-Sep-02 17:25N 54°09' E 012°07'0 0.0
2015-Sep-02 16:31N 54°09' E 012°07'0 0.0
2015-Sep-02 15:31N 54°09' E 012°07'0 0.0
2015-Sep-02 14:22N 54°09' E 012°07'0 0.0
2015-Sep-02 13:31N 54°09' E 012°07'0 0.0
2015-Sep-02 12:31N 54°09' E 012°07'0 0.0
2015-Sep-02 11:34N 54°09' E 012°07'2 2.0
2015-Sep-02 10:33N 54°11' E 012°06'4 4.3
2015-Sep-02 09:33N 54°13' E 011°59'0 0.0
2015-Sep-02 07:21N 54°13' E 011°59'6 7.4
2015-Sep-02 06:33N 54°18' E 012°02'10 9.6
2015-Sep-02 05:33N 54°27' E 012°10'43 9.8
2015-Sep-02 01:07N 55°07' E 012°39'610.2
2015-Sep-02 00:33N 55°13' E 012°38'1010.4
2015-Sep-01 23:33N 55°23' E 012°39'1010.4
2015-Sep-01 22:33N 55°33' E 012°42'1010.2
2015-Sep-01 21:34N 55°43' E 012°41'1010.0
2015-Sep-01 20:33N 55°53' E 012°44'8 8.3
2015-Sep-01 19:34N 56°01' E 012°42'0 0.1
2015-Sep-01 18:31N 56°01' E 012°42'0 0.0
2015-Sep-01 17:32N 56°01' E 012°42'0 0.0
2015-Sep-01 16:32N 56°01' E 012°42'0 0.0
2015-Sep-01 15:32N 56°01' E 012°42'0 0.0
2015-Sep-01 14:32N 56°01' E 012°42'0 0.0
2015-Sep-01 13:33N 56°01' E 012°42'0 0.0
2015-Sep-01 12:32N 56°01' E 012°42'0 0.0
2015-Sep-01 11:32N 56°01' E 012°42'0 0.0
2015-Sep-01 10:32N 56°01' E 012°42'0 0.0
2015-Sep-01 09:22N 56°01' E 012°42'0 0.0
2015-Sep-01 08:33N 56°01' E 012°42'0 0.0
2015-Sep-01 07:32N 56°01' E 012°42'0 0.0
2015-Sep-01 06:32N 56°01' E 012°42'0 0.0
2015-Sep-01 05:33N 56°01' E 012°42'0 0.0
2015-Sep-01 04:32N 56°01' E 012°42'0 0.0
2015-Sep-01 03:32N 56°01' E 012°42'0 0.0
2015-Sep-01 02:32N 56°01' E 012°42'0 0.0
2015-Sep-01 01:32N 56°01' E 012°42'0 0.0
2015-Sep-01 00:32N 56°01' E 012°42'0 0.0
2015-Aug-31 23:31N 56°01' E 012°42'0 0.0
2015-Aug-31 22:32N 56°01' E 012°42'0 0.0
2015-Aug-31 21:32N 56°01' E 012°42'0 0.0
2015-Aug-31 20:33N 56°01' E 012°42'0 0.0
2015-Aug-31 19:31N 56°01' E 012°42'0 0.0
2015-Aug-31 18:32N 56°01' E 012°42'0 0.0
2015-Aug-31 17:32N 56°01' E 012°42'0 0.0
2015-Aug-31 16:32N 56°01' E 012°42'0 0.0
2015-Aug-31 15:32N 56°01' E 012°42'0 0.0
2015-Aug-31 14:32N 56°01' E 012°42'0 0.0
2015-Aug-31 13:33N 56°01' E 012°42'0 0.0
2015-Aug-31 12:32N 56°01' E 012°42'0 0.0
2015-Aug-31 11:32N 56°01' E 012°42'0 0.0
2015-Aug-31 10:32N 56°01' E 012°42'0 0.0
2015-Aug-31 09:33N 56°01' E 012°42'0 0.0
2015-Aug-31 08:32N 56°01' E 012°42'0 0.0
2015-Aug-31 07:32N 56°01' E 012°42'0 0.0
2015-Aug-31 06:32N 56°01' E 012°42'0 0.0
2015-Aug-31 05:32N 56°01' E 012°42'0 0.0
2015-Aug-31 04:31N 56°01' E 012°42'0 0.0
2015-Aug-31 03:32N 56°01' E 012°42'0 0.0
2015-Aug-31 02:32N 56°01' E 012°42'0 0.0
2015-Aug-31 01:32N 56°01' E 012°42'0 0.0
2015-Aug-31 00:31N 56°01' E 012°42'0 0.0
2015-Aug-30 23:32N 56°01' E 012°42'0 0.0
2015-Aug-30 22:32N 56°01' E 012°42'0 0.0
2015-Aug-30 21:32N 56°01' E 012°42'0 0.0
2015-Aug-30 20:32N 56°01' E 012°42'0 0.0
2015-Aug-30 19:32N 56°01' E 012°42'0 0.0
2015-Aug-30 18:32N 56°01' E 012°42'0 0.0
2015-Aug-30 17:31N 56°01' E 012°42'0 0.0
2015-Aug-30 16:32N 56°01' E 012°42'0 0.0
2015-Aug-30 15:32N 56°01' E 012°42'0 0.0
2015-Aug-30 14:32N 56°01' E 012°42'0 0.0
2015-Aug-30 13:33N 56°01' E 012°42'0 0.0
2015-Aug-30 12:33N 56°01' E 012°42'0 0.0
2015-Aug-30 11:33N 56°01' E 012°42'0 0.0
2015-Aug-30 10:32N 56°01' E 012°42'0 0.0
2015-Aug-30 09:33N 56°01' E 012°42'0 0.0
2015-Aug-30 08:33N 56°01' E 012°42'0 0.0
2015-Aug-30 07:33N 56°01' E 012°42'0 0.0
2015-Aug-30 06:33N 56°01' E 012°42'0 0.0
2015-Aug-30 05:33N 56°01' E 012°42'0 0.0
2015-Aug-30 04:33N 56°01' E 012°42'0 0.0
2015-Aug-30 03:33N 56°01' E 012°42'0 0.0
2015-Aug-30 02:33N 56°01' E 012°42'0 0.0
2015-Aug-30 01:33N 56°01' E 012°42'0 0.0
2015-Aug-30 00:33N 56°01' E 012°42'0 0.0
2015-Aug-29 23:32N 56°01' E 012°42'0 0.0
2015-Aug-29 22:33N 56°01' E 012°42'0 0.0
2015-Aug-29 21:33N 56°01' E 012°42'0 0.0
2015-Aug-29 20:33N 56°01' E 012°42'0 0.0
2015-Aug-29 19:33N 56°01' E 012°42'0 0.0
2015-Aug-29 18:33N 56°01' E 012°42'0 0.0
2015-Aug-29 17:33N 56°01' E 012°42'0 0.0
2015-Aug-29 16:33N 56°01' E 012°42'0 0.0
2015-Aug-29 15:32N 56°01' E 012°42'0 0.0
2015-Aug-29 14:32N 56°01' E 012°42'0 0.0
2015-Aug-29 13:33N 56°01' E 012°42'0 0.0
2015-Aug-29 12:33N 56°01' E 012°42'0 0.0
2015-Aug-29 11:33N 56°01' E 012°42'0 0.0
2015-Aug-29 10:33N 56°01' E 012°42'3 3.4
2015-Aug-29 09:33N 56°04' E 012°38'1212.2
2015-Aug-29 08:33N 56°11' E 012°20'2710.9
2015-Aug-29 06:04N 56°34' E 011°56'611.6
2015-Aug-29 05:32N 56°40' E 011°53'1211.7
2015-Aug-29 04:33N 56°51' E 011°47'1211.9
2015-Aug-29 03:33N 57°03' E 011°39'1211.7
2015-Aug-29 02:33N 57°13' E 011°31'1111.2
2015-Aug-29 01:33N 57°24' E 011°23'1110.9
2015-Aug-29 00:33N 57°33' E 011°13'1111.3
2015-Aug-28 23:33N 57°41' E 010°57'1211.8
2015-Aug-28 22:29N 57°47' E 010°37'  
2015-Aug-26 16:32N 55°35' E 007°48'1010.5
2015-Aug-26 15:33N 55°29' E 008°03'10 9.6
2015-Aug-26 14:33N 55°28' E 008°20'4 3.7
2015-Aug-26 13:31N 55°27' E 008°27'0 0.0
2015-Aug-26 12:34N 55°27' E 008°27'0 0.0
2015-Aug-26 11:19N 55°27' E 008°27'0 0.0
2015-Aug-26 10:22N 55°27' E 008°27'0 0.0
2015-Aug-26 09:25N 55°27' E 008°27'0 0.0
2015-Aug-26 08:28N 55°27' E 008°27'0 0.0
2015-Aug-26 07:28N 55°27' E 008°27'0 0.0
2015-Aug-26 05:31N 55°27' E 008°27'0 0.0
2015-Aug-26 04:31N 55°27' E 008°27'0 0.0
2015-Aug-26 03:13N 55°27' E 008°27'0 0.0
2015-Aug-26 02:34N 55°27' E 008°27'0 0.0
2015-Aug-26 01:34N 55°27' E 008°27'0 0.0
2015-Aug-26 00:34N 55°27' E 008°27'0 0.0
2015-Aug-25 23:34N 55°27' E 008°27'0 0.0
2015-Aug-25 22:34N 55°27' E 008°27'0 0.0
2015-Aug-25 21:34N 55°27' E 008°27'0 0.0
2015-Aug-25 20:25N 55°27' E 008°27'0 0.0
2015-Aug-25 19:25N 55°27' E 008°27'0 0.0
2015-Aug-25 18:28N 55°27' E 008°27'0 0.0
2015-Aug-25 17:28N 55°27' E 008°27'0 0.0
2015-Aug-25 16:28N 55°27' E 008°27'0 0.0
2015-Aug-25 15:28N 55°27' E 008°27'1 0.8
2015-Aug-25 14:33N 55°28' E 008°26'7 6.6
2015-Aug-25 13:33N 55°26' E 008°14'2010.2
2015-Aug-25 11:34N 55°23' E 007°39'1110.6
2015-Aug-25 10:33N 55°22' E 007°20'1110.8
2015-Aug-25 09:33N 55°20' E 007°02'1110.0
2015-Aug-25 08:25N 55°17' E 006°43'1011.4
2015-Aug-25 07:33N 55°08' E 006°37'7311.5
2015-Aug-25 01:13N 54°14' E 005°12'812.0
2015-Aug-25 00:33N 54°08' E 005°03'1111.3
2015-Aug-24 23:33N 53°57' E 004°56'2612.0
2015-Aug-24 21:20N 53°31' E 004°45'911.9
2015-Aug-24 20:33N 53°23' E 004°39'13311.0
2015-Aug-24 08:29N 51°38' E 002°27'1212.3
2015-Aug-24 07:31N 51°28' E 002°15'1212.2
2015-Aug-24 06:33N 51°18' E 002°06'1212.4
2015-Aug-24 05:33N 51°09' E 001°53'1312.8
2015-Aug-24 04:33N 50°60' E 001°39'1312.6
2015-Aug-24 03:33N 50°50' E 001°26'1711.8
2015-Aug-24 02:04N 50°36' E 001°08'611.5
2015-Aug-24 01:32N 50°33' E 001°01'  
Track history (hours):
 
Tides and Currents Weather Stations Pressure Air Temp Water Temp Dewpoint Dewpoint Depression Visibility Wind Speed Wind Dir Waves Ship Positions

Pernille

Last reported at 2015-Sep-02 18:31 UTC. Time now 2015-Sep-02 19:05 UTC.
Position N 54°09' E 012°07'.

Length 82 m; draft 5.3 m.

Type: Cargo ship. MMSI: 212662000.

Date/timePositionNaut miles runAvg speedWind from/ knotsBaromVisibWave heightAir tempDewpointWater temp
2015-Sep-02 18:31N 54°09' E 012°07'0 0.0
2015-Sep-02 17:25N 54°09' E 012°07'0 0.0
2015-Sep-02 16:31N 54°09' E 012°07'0 0.0
2015-Sep-02 15:31N 54°09' E 012°07'0 0.0
2015-Sep-02 14:22N 54°09' E 012°07'0 0.0
2015-Sep-02 13:31N 54°09' E 012°07'0 0.0
2015-Sep-02 12:31N 54°09' E 012°07'0 0.0
2015-Sep-02 11:34N 54°09' E 012°07'2 2.0
2015-Sep-02 10:33N 54°11' E 012°06'4 4.3
2015-Sep-02 09:33N 54°13' E 011°59'0 0.0
2015-Sep-02 07:21N 54°13' E 011°59'6 7.4
2015-Sep-02 06:33N 54°18' E 012°02'10 9.6
2015-Sep-02 05:33N 54°27' E 012°10'43 9.8
2015-Sep-02 01:07N 55°07' E 012°39'610.2
2015-Sep-02 00:33N 55°13' E 012°38'1010.4
2015-Sep-01 23:33N 55°23' E 012°39'1010.4
2015-Sep-01 22:33N 55°33' E 012°42'1010.2
2015-Sep-01 21:34N 55°43' E 012°41'1010.0
2015-Sep-01 20:33N 55°53' E 012°44'8 8.3
2015-Sep-01 19:34N 56°01' E 012°42'0 0.1
2015-Sep-01 18:31N 56°01' E 012°42'0 0.0
2015-Sep-01 17:32N 56°01' E 012°42'0 0.0
2015-Sep-01 16:32N 56°01' E 012°42'0 0.0
2015-Sep-01 15:32N 56°01' E 012°42'0 0.0
2015-Sep-01 14:32N 56°01' E 012°42'0 0.0
2015-Sep-01 13:33N 56°01' E 012°42'0 0.0
2015-Sep-01 12:32N 56°01' E 012°42'0 0.0
2015-Sep-01 11:32N 56°01' E 012°42'0 0.0
2015-Sep-01 10:32N 56°01' E 012°42'0 0.0
2015-Sep-01 09:22N 56°01' E 012°42'0 0.0
2015-Sep-01 08:33N 56°01' E 012°42'0 0.0
2015-Sep-01 07:32N 56°01' E 012°42'0 0.0
2015-Sep-01 06:32N 56°01' E 012°42'0 0.0
2015-Sep-01 05:33N 56°01' E 012°42'0 0.0
2015-Sep-01 04:32N 56°01' E 012°42'0 0.0
2015-Sep-01 03:32N 56°01' E 012°42'0 0.0
2015-Sep-01 02:32N 56°01' E 012°42'0 0.0
2015-Sep-01 01:32N 56°01' E 012°42'0 0.0
2015-Sep-01 00:32N 56°01' E 012°42'0 0.0
2015-Aug-31 23:31N 56°01' E 012°42'0 0.0
2015-Aug-31 22:32N 56°01' E 012°42'0 0.0
2015-Aug-31 21:32N 56°01' E 012°42'0 0.0
2015-Aug-31 20:33N 56°01' E 012°42'0 0.0
2015-Aug-31 19:31N 56°01' E 012°42'0 0.0
2015-Aug-31 18:32N 56°01' E 012°42'0 0.0
2015-Aug-31 17:32N 56°01' E 012°42'0 0.0
2015-Aug-31 16:32N 56°01' E 012°42'0 0.0
2015-Aug-31 15:32N 56°01' E 012°42'0 0.0
2015-Aug-31 14:32N 56°01' E 012°42'0 0.0
2015-Aug-31 13:33N 56°01' E 012°42'0 0.0
2015-Aug-31 12:32N 56°01' E 012°42'0 0.0
2015-Aug-31 11:32N 56°01' E 012°42'0 0.0
2015-Aug-31 10:32N 56°01' E 012°42'0 0.0
2015-Aug-31 09:33N 56°01' E 012°42'0 0.0
2015-Aug-31 08:32N 56°01' E 012°42'0 0.0
2015-Aug-31 07:32N 56°01' E 012°42'0 0.0
2015-Aug-31 06:32N 56°01' E 012°42'0 0.0
2015-Aug-31 05:32N 56°01' E 012°42'0 0.0
2015-Aug-31 04:31N 56°01' E 012°42'0 0.0
2015-Aug-31 03:32N 56°01' E 012°42'0 0.0
2015-Aug-31 02:32N 56°01' E 012°42'0 0.0
2015-Aug-31 01:32N 56°01' E 012°42'0 0.0
2015-Aug-31 00:31N 56°01' E 012°42'0 0.0
2015-Aug-30 23:32N 56°01' E 012°42'0 0.0
2015-Aug-30 22:32N 56°01' E 012°42'0 0.0
2015-Aug-30 21:32N 56°01' E 012°42'0 0.0
2015-Aug-30 20:32N 56°01' E 012°42'0 0.0
2015-Aug-30 19:32N 56°01' E 012°42'0 0.0
2015-Aug-30 18:32N 56°01' E 012°42'0 0.0
2015-Aug-30 17:31N 56°01' E 012°42'0 0.0
2015-Aug-30 16:32N 56°01' E 012°42'0 0.0
2015-Aug-30 15:32N 56°01' E 012°42'0 0.0
2015-Aug-30 14:32N 56°01' E 012°42'0 0.0
2015-Aug-30 13:33N 56°01' E 012°42'0 0.0
2015-Aug-30 12:33N 56°01' E 012°42'0 0.0
2015-Aug-30 11:33N 56°01' E 012°42'0 0.0
2015-Aug-30 10:32N 56°01' E 012°42'0 0.0
2015-Aug-30 09:33N 56°01' E 012°42'0 0.0
2015-Aug-30 08:33N 56°01' E 012°42'0 0.0
2015-Aug-30 07:33N 56°01' E 012°42'0 0.0
2015-Aug-30 06:33N 56°01' E 012°42'0 0.0
2015-Aug-30 05:33N 56°01' E 012°42'0 0.0
2015-Aug-30 04:33N 56°01' E 012°42'0 0.0
2015-Aug-30 03:33N 56°01' E 012°42'0 0.0
2015-Aug-30 02:33N 56°01' E 012°42'0 0.0
2015-Aug-30 01:33N 56°01' E 012°42'0 0.0
2015-Aug-30 00:33N 56°01' E 012°42'0 0.0
2015-Aug-29 23:32N 56°01' E 012°42'0 0.0
2015-Aug-29 22:33N 56°01' E 012°42'0 0.0
2015-Aug-29 21:33N 56°01' E 012°42'0 0.0
2015-Aug-29 20:33N 56°01' E 012°42'0 0.0
2015-Aug-29 19:33N 56°01' E 012°42'0 0.0
2015-Aug-29 18:33N 56°01' E 012°42'0 0.0
2015-Aug-29 17:33N 56°01' E 012°42'0 0.0
2015-Aug-29 16:33N 56°01' E 012°42'0 0.0
2015-Aug-29 15:32N 56°01' E 012°42'0 0.0
2015-Aug-29 14:32N 56°01' E 012°42'0 0.0
2015-Aug-29 13:33N 56°01' E 012°42'0 0.0
2015-Aug-29 12:33N 56°01' E 012°42'0 0.0
2015-Aug-29 11:33N 56°01' E 012°42'0 0.0
2015-Aug-29 10:33N 56°01' E 012°42'3 3.4
2015-Aug-29 09:33N 56°04' E 012°38'1212.2
2015-Aug-29 08:33N 56°11' E 012°20'2710.9
2015-Aug-29 06:04N 56°34' E 011°56'611.6
2015-Aug-29 05:32N 56°40' E 011°53'1211.7
2015-Aug-29 04:33N 56°51' E 011°47'1211.9
2015-Aug-29 03:33N 57°03' E 011°39'1211.7
2015-Aug-29 02:33N 57°13' E 011°31'1111.2
2015-Aug-29 01:33N 57°24' E 011°23'1110.9
2015-Aug-29 00:33N 57°33' E 011°13'1111.3
2015-Aug-28 23:33N 57°41' E 010°57'1211.8
2015-Aug-28 22:29N 57°47' E 010°37'  
2015-Aug-26 16:32N 55°35' E 007°48'1010.5
2015-Aug-26 15:33N 55°29' E 008°03'10 9.6
2015-Aug-26 14:33N 55°28' E 008°20'4 3.7
2015-Aug-26 13:31N 55°27' E 008°27'0 0.0
2015-Aug-26 12:34N 55°27' E 008°27'0 0.0
2015-Aug-26 11:19N 55°27' E 008°27'0 0.0
2015-Aug-26 10:22N 55°27' E 008°27'0 0.0
2015-Aug-26 09:25N 55°27' E 008°27'0 0.0
2015-Aug-26 08:28N 55°27' E 008°27'0 0.0
2015-Aug-26 07:28N 55°27' E 008°27'0 0.0
2015-Aug-26 05:31N 55°27' E 008°27'0 0.0
2015-Aug-26 04:31N 55°27' E 008°27'0 0.0
2015-Aug-26 03:13N 55°27' E 008°27'0 0.0
2015-Aug-26 02:34N 55°27' E 008°27'0 0.0
2015-Aug-26 01:34N 55°27' E 008°27'0 0.0
2015-Aug-26 00:34N 55°27' E 008°27'0 0.0
2015-Aug-25 23:34N 55°27' E 008°27'0 0.0
2015-Aug-25 22:34N 55°27' E 008°27'0 0.0
2015-Aug-25 21:34N 55°27' E 008°27'0 0.0
2015-Aug-25 20:25N 55°27' E 008°27'0 0.0
2015-Aug-25 19:25N 55°27' E 008°27'0 0.0
2015-Aug-25 18:28N 55°27' E 008°27'0 0.0
2015-Aug-25 17:28N 55°27' E 008°27'0 0.0
2015-Aug-25 16:28N 55°27' E 008°27'0 0.0
2015-Aug-25 15:28N 55°27' E 008°27'1 0.8
2015-Aug-25 14:33N 55°28' E 008°26'7 6.6
2015-Aug-25 13:33N 55°26' E 008°14'2010.2
2015-Aug-25 11:34N 55°23' E 007°39'1110.6
2015-Aug-25 10:33N 55°22' E 007°20'1110.8
2015-Aug-25 09:33N 55°20' E 007°02'1110.0
2015-Aug-25 08:25N 55°17' E 006°43'1011.4
2015-Aug-25 07:33N 55°08' E 006°37'7311.5
2015-Aug-25 01:13N 54°14' E 005°12'812.0
2015-Aug-25 00:33N 54°08' E 005°03'1111.3
2015-Aug-24 23:33N 53°57' E 004°56'2612.0
2015-Aug-24 21:20N 53°31' E 004°45'911.9
2015-Aug-24 20:33N 53°23' E 004°39'13311.0
2015-Aug-24 08:29N 51°38' E 002°27'1212.3
2015-Aug-24 07:31N 51°28' E 002°15'1212.2
2015-Aug-24 06:33N 51°18' E 002°06'1212.4
2015-Aug-24 05:33N 51°09' E 001°53'1312.8
2015-Aug-24 04:33N 50°60' E 001°39'1312.6
2015-Aug-24 03:33N 50°50' E 001°26'1711.8
2015-Aug-24 02:04N 50°36' E 001°08'611.5
2015-Aug-24 01:32N 50°33' E 001°01'  

Dump ship's entire track history